Time;durP1;ratioP1;P1;durP2;ratioP2;P2;SDS_P1;SDS_P2;PMS_P1;PMS_P2;Temp;Humidity;BMP_temperature;BMP_pressure;BME280_temperature;BME280_humidity;BME280_pressure;Samples;Min_cycle;Max_cycle;Signal;HPM_P1;HPM_P2
2021/11/17 02:27:57;;;;;;;9.27;6.38;;;17.20;99.90;;;;;;5092674;28;20035;-68
2021/11/17 02:31:03;;;;;;;10.48;6.70;;;17.20;99.90;;;;;;5072442;28;20123;-67
2021/11/17 02:33:53;;;;;;;8.23;5.85;;;17.30;99.90;;;;;;5087851;28;20095;-66
2021/11/17 02:36:40;;;;;;;9.52;6.38;;;17.30;99.90;;;;;;5092126;28;20035;-70
2021/11/17 02:39:25;;;;;;;10.70;6.60;;;17.30;99.90;;;;;;5092525;28;20026;-70
2021/11/17 02:42:00;;;;;;;10.38;6.53;;;17.30;99.90;;;;;;5092419;28;20059;-68
2021/11/17 02:44:43;;;;;;;10.10;6.80;;;17.30;99.90;;;;;;5092176;28;20036;-69
2021/11/17 02:47:22;;;;;;;9.80;6.53;;;17.30;99.90;;;;;;5090562;28;20024;-67
2021/11/17 02:50:03;;;;;;;9.40;6.43;;;17.30;99.90;;;;;;5089582;28;20058;-69
2021/11/17 02:52:47;;;;;;;9.27;6.32;;;17.30;99.90;;;;;;5091890;28;20020;-69
2021/11/17 02:55:18;;;;;;;10.43;6.80;;;17.30;99.90;;;;;;5092208;28;20032;-68
2021/11/17 02:58:09;;;;;;;11.65;6.50;;;17.30;99.90;;;;;;5092540;28;20031;-69
2021/11/17 03:00:35;;;;;;;9.57;6.40;;;17.40;99.90;;;;;;5091105;28;20103;-70
2021/11/17 03:03:12;;;;;;;10.05;6.50;;;17.40;99.90;;;;;;5091475;28;20103;-69
2021/11/17 03:05:53;;;;;;;9.75;6.00;;;17.30;99.90;;;;;;5091899;28;20047;-67
2021/11/17 03:08:43;;;;;;;8.73;6.22;;;17.40;99.90;;;;;;5092355;28;20031;-68
2021/11/17 03:11:14;;;;;;;10.13;6.25;;;17.40;99.90;;;;;;5091935;28;20035;-68
2021/11/17 03:13:46;;;;;;;9.55;6.25;;;17.40;99.90;;;;;;5091644;28;20472;-69
2021/11/17 03:16:11;;;;;;;10.68;6.65;;;17.40;99.90;;;;;;5091672;28;20099;-68
2021/11/17 03:19:13;;;;;;;10.43;6.55;;;17.40;99.90;;;;;;5091224;28;20455;-69
2021/11/17 03:22:11;;;;;;;8.77;6.05;;;17.40;99.90;;;;;;5091254;28;20036;-68
2021/11/17 03:25:05;;;;;;;9.05;5.88;;;17.40;99.90;;;;;;5091623;28;20028;-68
2021/11/17 03:27:30;;;;;;;10.82;6.68;;;17.40;99.90;;;;;;5091747;28;20444;-68
2021/11/17 03:30:08;;;;;;;9.27;5.93;;;17.50;99.90;;;;;;5091430;28;20028;-68
2021/11/17 03:33:00;;;;;;;8.13;5.72;;;17.50;99.90;;;;;;5091428;28;20376;-69
2021/11/17 03:35:35;;;;;;;7.85;5.53;;;17.50;99.90;;;;;;5075594;28;20532;-69
2021/11/17 03:38:22;;;;;;;8.55;5.85;;;17.50;99.90;;;;;;5091746;28;20024;-68
2021/11/17 03:41:19;;;;;;;9.18;5.82;;;17.50;99.90;;;;;;5091948;28;20380;-68
2021/11/17 03:44:00;;;;;;;8.75;5.82;;;17.50;99.90;;;;;;5091546;28;20510;-69
2021/11/17 03:46:31;;;;;;;10.15;6.15;;;17.50;99.90;;;;;;5089983;28;20024;-68
2021/11/17 03:49:21;;;;;;;9.05;5.78;;;17.50;99.90;;;;;;5090569;28;20020;-68
2021/11/17 03:52:28;;;;;;;9.05;5.72;;;17.50;99.90;;;;;;5091457;28;20047;-68
2021/11/17 03:55:12;;;;;;;9.50;6.03;;;17.50;99.90;;;;;;5091002;28;20030;-68
2021/11/17 03:57:50;;;;;;;8.70;5.80;;;17.50;99.90;;;;;;5085365;28;20480;-67
2021/11/17 04:00:22;;;;;;;10.55;5.90;;;17.60;99.90;;;;;;5091230;28;20456;-68
2021/11/17 04:03:18;;;;;;;8.30;5.60;;;17.60;99.90;;;;;;5091222;28;20099;-68
2021/11/17 04:06:08;;;;;;;8.32;5.93;;;17.60;99.90;;;;;;5087113;28;20503;-68
2021/11/17 04:08:43;;;;;;;8.50;6.03;;;17.60;99.90;;;;;;5091043;28;20017;-68
2021/11/17 04:11:23;;;;;;;8.02;5.25;;;17.60;99.90;;;;;;5091433;28;20031;-68
2021/11/17 04:14:11;;;;;;;7.53;5.22;;;17.60;99.90;;;;;;5091372;28;20016;-68
2021/11/17 04:17:08;;;;;;;7.60;5.40;;;17.60;99.90;;;;;;5089681;28;20024;-68
2021/11/17 04:19:36;;;;;;;8.45;5.50;;;17.60;99.90;;;;;;5070742;28;20377;-68
2021/11/17 04:22:37;;;;;;;8.25;5.90;;;17.60;99.90;;;;;;5082684;28;20039;-68
2021/11/17 04:25:12;;;;;;;8.13;5.10;;;17.60;99.90;;;;;;5090166;28;20028;-69
2021/11/17 04:27:43;;;;;;;8.23;5.20;;;17.60;99.90;;;;;;5090892;28;20016;-68
2021/11/17 04:30:11;;;;;;;7.80;5.13;;;17.60;99.90;;;;;;5090366;28;20028;-68
2021/11/17 04:33:06;;;;;;;9.60;5.60;;;17.60;99.90;;;;;;5090871;28;20028;-68
2021/11/17 04:36:08;;;;;;;8.30;5.20;;;17.60;99.90;;;;;;5053365;28;20037;-68
2021/11/17 04:39:02;;;;;;;8.13;5.57;;;17.60;99.90;;;;;;5086315;28;20028;-70
2021/11/17 04:41:47;;;;;;;;;;;17.60;99.90;;;;;;5095419;28;20098;-69
2021/11/17 04:44:27;;;;;;;7.57;5.28;;;17.70;99.90;;;;;;5094328;28;19926;-70
2021/11/17 04:47:23;;;;;;;7.78;4.85;;;17.60;99.90;;;;;;5094557;28;20031;-68
2021/11/17 04:50:03;;;;;;;8.23;5.32;;;17.60;99.90;;;;;;5094801;28;20028;-69
2021/11/17 04:52:38;;;;;;;7.78;5.25;;;17.70;99.90;;;;;;5094777;28;20099;-68
2021/11/17 04:55:26;;;;;;;8.10;5.53;;;17.70;99.90;;;;;;5093936;28;20121;-69
2021/11/17 04:58:09;;;;;;;7.47;5.10;;;17.60;99.90;;;;;;5094277;28;20559;-69
2021/11/17 05:00:53;;;;;;;7.55;5.20;;;17.70;99.90;;;;;;5077510;28;20102;-68
2021/11/17 05:03:21;;;;;;;7.40;5.00;;;17.70;99.90;;;;;;5074251;28;20029;-67
2021/11/17 05:05:54;;;;;;;7.85;5.00;;;17.70;99.90;;;;;;5074291;28;20508;-68
2021/11/17 05:08:34;;;;;;;7.68;4.82;;;17.70;99.90;;;;;;5093982;28;20036;-69
2021/11/17 05:11:06;;;;;;;9.30;4.82;;;17.70;99.90;;;;;;5094247;28;20090;-68
2021/11/17 05:13:41;;;;;;;7.40;4.97;;;17.70;99.90;;;;;;5094345;28;20028;-67
2021/11/17 05:16:15;;;;;;;7.40;4.63;;;17.70;99.90;;;;;;5093555;28;20020;-67
2021/11/17 05:18:41;;;;;;;7.20;4.53;;;17.70;99.90;;;;;;5094091;28;20470;-68
2021/11/17 05:21:31;;;;;;;7.47;5.20;;;17.70;99.90;;;;;;5093538;28;20024;-68
2021/11/17 05:24:20;;;;;;;6.95;4.60;;;17.70;99.90;;;;;;5093820;28;20040;-67
2021/11/17 05:27:09;;;;;;;6.85;4.88;;;17.70;99.90;;;;;;5093701;28;20062;-67
2021/11/17 05:29:52;;;;;;;7.53;4.65;;;17.70;99.90;;;;;;5093763;28;20038;-67
2021/11/17 05:32:36;;;;;;;6.15;4.50;;;17.70;99.90;;;;;;5093257;28;20047;-67
2021/11/17 05:35:20;;;;;;;8.00;4.68;;;17.70;99.90;;;;;;5093374;28;20434;-67
2021/11/17 05:38:04;;;;;;;6.82;4.82;;;17.70;99.90;;;;;;5093434;28;20440;-67
2021/11/17 05:40:35;;;;;;;6.68;4.28;;;17.70;99.90;;;;;;5093580;28;20032;-68
2021/11/17 05:43:58;;;;;;;6.32;4.63;;;17.70;99.90;;;;;;5093349;28;20082;-69
2021/11/17 05:46:30;;;;;;;6.63;4.80;;;17.70;99.90;;;;;;5063670;28;20041;-69
2021/11/17 05:49:04;;;;;;;5.78;4.28;;;17.70;99.90;;;;;;5070839;28;20081;-71
2021/11/17 05:51:38;;;;;;;6.68;4.57;;;17.70;99.90;;;;;;5082926;28;20035;-68
2021/11/17 05:54:35;;;;;;;5.57;4.30;;;17.70;99.90;;;;;;5093162;28;20468;-70
2021/11/17 05:57:08;;;;;;;5.95;4.18;;;17.70;99.90;;;;;;5093118;28;20480;-72
2021/11/17 05:59:45;;;;;;;7.65;4.70;;;17.70;99.90;;;;;;5093197;28;20124;-74
2021/11/17 06:03:02;;;;;;;5.65;4.22;;;17.70;99.90;;;;;;5092352;28;20028;-71
2021/11/17 06:05:28;;;;;;;7.45;4.63;;;17.70;99.90;;;;;;5057439;28;20043;-74
2021/11/17 06:07:53;;;;;;;6.13;4.57;;;17.70;99.90;;;;;;5092628;28;20028;-68
2021/11/17 06:10:28;;;;;;;7.03;4.38;;;17.70;99.90;;;;;;5092901;28;20428;-69
2021/11/17 06:12:54;;;;;;;6.88;4.57;;;17.70;99.90;;;;;;5092496;28;20097;-67
2021/11/17 06:15:20;;;;;;;7.00;4.68;;;17.70;99.90;;;;;;5092819;28;20144;-68
2021/11/17 06:17:49;;;;;;;6.53;4.50;;;17.70;99.90;;;;;;5092701;28;20024;-75
2021/11/17 06:20:17;;;;;;;6.65;4.60;;;17.70;99.90;;;;;;5092715;28;20484;-69
2021/11/17 06:22:47;;;;;;;6.63;4.65;;;17.70;99.90;;;;;;5092357;28;20035;-72
2021/11/17 06:25:14;;;;;;;6.88;4.75;;;17.70;99.90;;;;;;5092436;28;20101;-68
2021/11/17 06:27:46;;;;;;;8.15;5.25;;;17.70;99.90;;;;;;5092802;28;20030;-68
2021/11/17 06:30:15;;;;;;;7.18;4.85;;;17.70;99.90;;;;;;5092663;28;20028;-68
2021/11/17 06:32:41;;;;;;;9.00;4.97;;;17.70;99.90;;;;;;5092637;28;20115;-72
2021/11/17 06:35:10;;;;;;;7.28;4.85;;;17.70;99.90;;;;;;5091998;28;20487;-69
2021/11/17 06:37:37;;;;;;;12.70;4.35;;;17.70;99.90;;;;;;5092906;28;20020;-73
2021/11/17 06:40:06;;;;;;;7.70;5.50;;;17.60;99.90;;;;;;5092166;28;20024;-70
2021/11/17 06:42:35;;;;;;;7.43;5.10;;;17.70;99.90;;;;;;5093014;28;20396;-69
2021/11/17 06:45:04;;;;;;;7.40;4.32;;;17.60;99.90;;;;;;5092463;28;20039;-69
2021/11/17 06:47:30;;;;;;;7.88;4.78;;;17.60;99.90;;;;;;5091112;28;20059;-72
2021/11/17 06:49:55;;;;;;;6.43;4.22;;;17.60;99.90;;;;;;5092485;28;20105;-68
2021/11/17 06:52:22;;;;;;;8.38;5.35;;;17.60;99.90;;;;;;5092573;28;20020;-73
2021/11/17 06:54:48;;;;;;;6.80;4.65;;;17.70;99.90;;;;;;5092442;28;20020;-70
2021/11/17 06:57:14;;;;;;;6.10;4.35;;;17.60;99.90;;;;;;5092338;28;20027;-71
2021/11/17 06:59:39;;;;;;;6.95;4.90;;;17.70;99.90;;;;;;5092235;28;20028;-70
2021/11/17 07:02:06;;;;;;;7.57;4.45;;;17.60;99.90;;;;;;5090949;28;20043;-70
2021/11/17 07:04:33;;;;;;;6.57;4.35;;;17.60;99.90;;;;;;5090821;28;20396;-70
2021/11/17 07:06:59;;;;;;;6.13;4.70;;;17.70;99.90;;;;;;5092119;28;20073;-67
2021/11/17 07:09:25;;;;;;;6.90;4.40;;;17.70;99.90;;;;;;5092104;28;20020;-68
2021/11/17 07:11:50;;;;;;;12.07;7.35;;;17.70;99.90;;;;;;5092377;28;20021;-73
2021/11/17 07:14:21;;;;;;;16.52;10.18;;;17.70;99.90;;;;;;5091740;28;20530;-74
2021/11/17 07:16:46;;;;;;;21.30;12.82;;;17.50;99.90;;;;;;5091776;28;20530;-73
2021/11/17 07:19:12;;;;;;;21.90;12.98;;;17.40;99.90;;;;;;5091704;28;20028;-70
2021/11/17 07:21:40;;;;;;;21.90;13.52;;;17.40;99.90;;;;;;5092068;28;20024;-75
2021/11/17 07:24:06;;;;;;;19.10;11.38;;;17.30;99.90;;;;;;5091517;28;20020;-72
2021/11/17 07:26:33;;;;;;;20.30;12.02;;;17.30;99.90;;;;;;5091886;28;20062;-77
2021/11/17 07:28:58;;;;;;;18.77;11.38;;;17.40;99.90;;;;;;5091947;28;20047;-76
2021/11/17 07:31:24;;;;;;;15.88;10.30;;;17.40;99.90;;;;;;5091569;28;20054;-71
2021/11/17 07:33:50;;;;;;;15.30;9.48;;;17.50;99.90;;;;;;5091742;28;20032;-76
2021/11/17 07:36:16;;;;;;;17.70;9.70;;;17.50;99.90;;;;;;5091573;28;20016;-73
2021/11/17 07:38:43;;;;;;;12.30;8.35;;;17.50;99.90;;;;;;5091718;28;20032;-72
2021/11/17 07:41:09;;;;;;;14.95;8.68;;;17.50;99.90;;;;;;5091339;28;20081;-71
2021/11/17 07:43:35;;;;;;;12.00;8.13;;;17.50;99.90;;;;;;5091257;28;20028;-76
2021/11/17 07:46:01;;;;;;;11.70;7.55;;;17.50;99.90;;;;;;5090659;28;20059;-75
2021/11/17 07:48:28;;;;;;;14.88;8.23;;;17.50;99.90;;;;;;5091573;28;20063;-74
2021/11/17 07:50:55;;;;;;;14.82;7.35;;;17.50;99.90;;;;;;5091270;28;20484;-76
2021/11/17 07:53:24;;;;;;;13.02;7.45;;;17.60;99.90;;;;;;5090568;28;20024;-75
2021/11/17 07:55:53;;;;;;;13.02;7.40;;;17.60;99.90;;;;;;5090681;28;20634;-75
2021/11/17 07:58:21;;;;;;;10.02;6.75;;;17.60;99.90;;;;;;5089330;28;20052;-75
2021/11/17 08:00:51;;;;;;;11.32;7.10;;;17.50;99.90;;;;;;5090084;28;20535;-75
2021/11/17 08:03:20;;;;;;;11.07;6.80;;;17.60;99.90;;;;;;5089082;28;20210;-75
2021/11/17 08:05:49;;;;;;;9.70;6.53;;;17.50;99.90;;;;;;5090718;28;20044;-76
2021/11/17 08:08:16;;;;;;;8.98;6.15;;;17.50;99.90;;;;;;5090717;28;20357;-74
2021/11/17 08:10:42;;;;;;;10.50;6.68;;;17.50;99.90;;;;;;5090403;28;20085;-74
2021/11/17 08:13:08;;;;;;;10.85;6.40;;;17.50;99.90;;;;;;5092673;28;20111;-76
2021/11/17 08:15:34;;;;;;;11.32;6.15;;;17.60;99.90;;;;;;5094348;28;20096;-72
2021/11/17 08:18:00;;;;;;;10.45;5.60;;;17.60;99.90;;;;;;5094105;28;20089;-73
2021/11/17 08:20:26;;;;;;;12.95;6.13;;;17.60;99.90;;;;;;5095497;28;20077;-70
2021/11/17 08:22:54;;;;;;;10.95;5.97;;;17.60;99.90;;;;;;5095193;28;20085;-70
2021/11/17 08:25:23;;;;;;;11.13;5.70;;;17.60;99.90;;;;;;5095011;27;20086;-72
2021/11/17 08:27:49;;;;;;;10.80;6.28;;;17.60;99.90;;;;;;5095412;28;20024;-73
2021/11/17 08:30:17;;;;;;;10.77;5.65;;;17.60;99.90;;;;;;5095077;28;20024;-73
2021/11/17 08:32:44;;;;;;;10.98;5.28;;;17.60;99.90;;;;;;5095226;28;20021;-73
2021/11/17 08:35:12;;;;;;;8.48;5.30;;;17.60;99.90;;;;;;5095032;28;20096;-68
2021/11/17 08:37:38;;;;;;;9.60;5.35;;;17.60;99.90;;;;;;5095145;28;20020;-70
2021/11/17 08:40:17;;;;;;;8.23;5.78;;;17.70;99.90;;;;;;5094570;28;20039;-71
2021/11/17 08:42:43;;;;;;;7.40;5.57;;;17.70;99.90;;;;;;5095610;28;20035;-72
2021/11/17 08:45:10;;;;;;;8.82;5.75;;;17.70;99.90;;;;;;5094690;28;20078;-70
2021/11/17 08:47:35;;;;;;;10.38;5.93;;;17.70;99.90;;;;;;5094999;28;20047;-70
2021/11/17 08:50:04;;;;;;;8.57;5.40;;;17.80;99.90;;;;;;5094698;28;20476;-69
2021/11/17 08:52:30;;;;;;;9.48;5.65;;;17.80;99.90;;;;;;5095023;28;20106;-68
2021/11/17 08:54:56;;;;;;;12.52;5.55;;;17.80;99.90;;;;;;5094746;28;20149;-71
2021/11/17 08:57:22;;;;;;;8.57;5.70;;;17.90;99.90;;;;;;5094443;28;20032;-72
2021/11/17 08:59:51;;;;;;;8.80;5.50;;;17.90;99.90;;;;;;5094673;28;20858;-74
2021/11/17 09:02:17;;;;;;;7.63;5.00;;;17.90;99.90;;;;;;5093321;28;20031;-79
2021/11/17 09:04:43;;;;;;;11.68;6.15;;;17.90;99.90;;;;;;5095505;28;20040;-69
2021/11/17 09:07:10;;;;;;;8.88;5.28;;;18.00;99.90;;;;;;5094222;28;20495;-69
2021/11/17 09:09:36;;;;;;;7.20;5.28;;;18.00;99.90;;;;;;5094201;28;20032;-68
2021/11/17 09:12:02;;;;;;;7.07;4.75;;;18.00;99.90;;;;;;5093756;28;20030;-69
2021/11/17 09:14:28;;;;;;;8.05;5.30;;;18.00;99.90;;;;;;5094536;28;20099;-69
2021/11/17 09:16:54;;;;;;;8.38;5.30;;;18.10;99.90;;;;;;5094044;28;20127;-71
2021/11/17 09:19:21;;;;;;;7.53;4.97;;;18.10;99.90;;;;;;5094198;28;20016;-69
2021/11/17 09:21:48;;;;;;;9.38;5.20;;;18.10;99.90;;;;;;5093186;28;20416;-69
2021/11/17 09:24:16;;;;;;;7.00;4.72;;;18.20;99.90;;;;;;5092602;28;20372;-67
2021/11/17 09:26:43;;;;;;;8.02;4.90;;;18.20;99.90;;;;;;5092729;28;20027;-67
2021/11/17 09:29:09;;;;;;;8.40;4.95;;;18.20;99.90;;;;;;5093338;28;20032;-70
2021/11/17 09:31:36;;;;;;;6.78;5.03;;;18.20;99.90;;;;;;5093949;28;20545;-68
2021/11/17 09:34:02;;;;;;;7.72;5.03;;;18.30;99.90;;;;;;5093488;28;20384;-71
2021/11/17 09:36:30;;;;;;;7.78;5.00;;;18.30;99.90;;;;;;5094509;28;20024;-70
2021/11/17 09:38:56;;;;;;;8.07;4.50;;;18.30;99.90;;;;;;5094250;28;20506;-70
2021/11/17 09:41:34;;;;;;;5.82;4.15;;;18.20;99.90;;;;;;5093308;28;20032;-68
2021/11/17 09:44:10;;;;;;;6.13;4.63;;;18.30;99.90;;;;;;5093906;28;20020;-70
2021/11/17 09:46:37;;;;;;;6.18;4.50;;;18.30;99.90;;;;;;5094658;28;20085;-69
2021/11/17 09:49:22;;;;;;;7.25;4.15;;;18.30;99.90;;;;;;5093576;28;20055;-68
2021/11/17 09:51:52;;;;;;;6.30;4.93;;;18.30;99.90;;;;;;5093840;28;20063;-68
2021/11/17 09:54:39;;;;;;;6.80;4.28;;;18.30;99.90;;;;;;5093065;28;20032;-68
2021/11/17 09:57:22;;;;;;;6.70;4.28;;;18.30;99.90;;;;;;5093526;28;20112;-69
2021/11/17 10:00:01;;;;;;;6.88;4.20;;;18.40;99.90;;;;;;5093484;28;20484;-67
2021/11/17 10:02:38;;;;;;;5.10;4.03;;;18.40;99.90;;;;;;5093550;28;20031;-67
2021/11/17 10:06:38;;;;;;;5.63;4.03;;;18.40;99.90;;;;;;5093173;28;20135;-68
2021/11/17 10:14:35;;;;;;;5.88;4.18;;;18.40;99.90;;;;;;5010991;28;20030;-67
2021/11/17 10:17:02;;;;;;;5.50;3.92;;;18.40;99.90;;;;;;5076927;28;20029;-68
2021/11/17 10:19:33;;;;;;;7.32;4.32;;;18.50;99.90;;;;;;5073407;28;20024;-67
2021/11/17 10:22:04;;;;;;;6.00;4.25;;;18.50;99.90;;;;;;5073274;28;20048;-68
2021/11/17 10:24:49;;;;;;;5.50;3.80;;;18.50;99.90;;;;;;5075893;28;20412;-68
2021/11/17 10:27:23;;;;;;;4.82;3.53;;;18.50;99.90;;;;;;5092944;28;20020;-68
2021/11/17 10:30:11;;;;;;;5.32;3.88;;;18.50;99.90;;;;;;5093147;28;20496;-66
2021/11/17 10:32:39;;;;;;;5.72;3.75;;;18.50;99.90;;;;;;5092802;28;20040;-67
2021/11/17 10:35:11;;;;;;;5.55;3.55;;;18.50;99.90;;;;;;5093138;28;20024;-68
2021/11/17 10:37:45;;;;;;;4.80;3.75;;;18.50;99.90;;;;;;5071721;28;20155;-68
2021/11/17 10:40:21;;;;;;;5.93;3.72;;;18.50;99.90;;;;;;5081031;28;20055;-68
2021/11/17 10:43:01;;;;;;;4.57;3.75;;;18.50;99.90;;;;;;5092801;28;20028;-67
2021/11/17 10:45:32;;;;;;;5.32;3.85;;;18.50;99.90;;;;;;5092764;28;20507;-66
2021/11/17 10:47:58;;;;;;;5.90;3.33;;;18.60;99.90;;;;;;5091992;28;20051;-68
2021/11/17 10:50:27;;;;;;;4.18;3.45;;;18.60;99.90;;;;;;5091727;28;20020;-66
2021/11/17 10:53:06;;;;;;;5.07;3.15;;;18.60;99.90;;;;;;5092618;28;20024;-66
2021/11/17 10:55:38;;;;;;;4.53;3.45;;;18.60;99.90;;;;;;5092316;28;20035;-68
2021/11/17 10:58:10;;;;;;;4.93;3.50;;;18.60;99.90;;;;;;5092260;28;20365;-67
2021/11/17 11:00:43;;;;;;;4.55;3.08;;;18.60;99.90;;;;;;5092516;28;20082;-66
2021/11/17 11:03:13;;;;;;;4.43;3.33;;;18.60;99.90;;;;;;5092279;28;20040;-68
2021/11/17 11:05:45;;;;;;;4.50;3.20;;;18.60;99.90;;;;;;5092057;28;20294;-69
2021/11/17 11:08:26;;;;;;;3.85;2.95;;;18.60;99.90;;;;;;5091770;28;20358;-71
2021/11/17 11:10:57;;;;;;;6.05;3.50;;;18.60;99.90;;;;;;5091516;28;20057;-70
2021/11/17 11:13:48;;;;;;;4.75;3.05;;;18.60;99.90;;;;;;5092047;28;20058;-69
2021/11/17 11:16:38;;;;;;;3.83;2.90;;;18.60;99.90;;;;;;5091916;28;20484;-71
2021/11/17 11:19:10;;;;;;;4.13;2.83;;;18.60;99.90;;;;;;5091213;28;20036;-71
2021/11/17 11:21:41;;;;;;;4.68;3.13;;;18.60;99.90;;;;;;5092144;28;20095;-72
2021/11/17 11:24:40;;;;;;;3.95;2.88;;;18.60;99.90;;;;;;5090889;28;20119;-72
2021/11/17 11:27:05;;;;;;;3.78;2.80;;;18.60;99.90;;;;;;5087585;28;20161;-72
2021/11/17 11:29:36;;;;;;;4.05;2.92;;;18.60;99.90;;;;;;5092317;28;20428;-72
2021/11/17 11:32:10;;;;;;;5.40;3.17;;;18.60;99.90;;;;;;5091459;28;20028;-71
2021/11/17 11:35:07;;;;;;;5.28;3.00;;;18.60;99.90;;;;;;5091400;28;20429;-68
2021/11/17 11:37:32;;;;;;;4.93;2.97;;;18.60;99.90;;;;;;5091571;28;20447;-68
2021/11/17 11:40:17;;;;;;;5.53;3.13;;;18.60;99.90;;;;;;5091826;28;20124;-69
2021/11/17 11:43:16;;;;;;;6.03;3.05;;;18.50;99.90;;;;;;5091258;28;20063;-67
2021/11/17 11:45:46;;;;;;;6.88;3.13;;;18.50;99.90;;;;;;5071495;28;20475;-69
2021/11/17 11:48:14;;;;;;;7.80;3.67;;;18.50;99.90;;;;;;5071035;28;20085;-69
2021/11/17 11:50:39;;;;;;;7.32;3.53;;;18.60;99.90;;;;;;5072364;28;20021;-70
2021/11/17 11:53:19;;;;;;;10.10;3.67;;;18.60;99.90;;;;;;5090647;28;20076;-68
2021/11/17 11:55:53;;;;;;;10.10;3.85;;;18.60;99.90;;;;;;5082859;28;20032;-71
2021/11/17 11:58:19;;;;;;;11.80;3.88;;;18.50;99.90;;;;;;5089108;28;20069;-71
2021/11/17 12:00:48;;;;;;;6.28;3.60;;;18.50;99.90;;;;;;5089984;28;20482;-71
2021/11/17 12:03:16;;;;;;;7.40;3.90;;;18.50;99.90;;;;;;5089505;28;20040;-71
2021/11/17 12:06:00;;;;;;;8.82;4.10;;;18.50;99.90;;;;;;5090326;28;20044;-73
2021/11/17 12:08:45;;;;;;;7.88;3.50;;;18.50;99.90;;;;;;5090291;28;20016;-69
2021/11/17 12:11:15;;;;;;;8.90;3.60;;;18.50;99.90;;;;;;5085618;28;20032;-68
2021/11/17 12:14:05;;;;;;;6.43;3.50;;;18.50;99.90;;;;;;5090299;28;20035;-70
2021/11/17 12:16:34;;;;;;;7.68;3.50;;;18.50;99.90;;;;;;5087896;28;20039;-70
2021/11/17 12:19:11;;;;;;;8.40;3.60;;;18.60;99.90;;;;;;5090253;28;20085;-69
2021/11/17 12:21:40;;;;;;;6.75;3.20;;;18.60;99.90;;;;;;5088164;28;20021;-70
